Time;durP1;ratioP1;P1;durP2;ratioP2;P2;SDS_P1;SDS_P2;PMS_P1;PMS_P2;Temp;Humidity;BMP_temperature;BMP_pressure;BME280_temperature;BME280_humidity;BME280_pressure;Samples;Min_cycle;Max_cycle;Signal;HPM_P1;HPM_P2
2022/08/24 00:01:27;;;;;;;;;31.40;30.20;;;;;27.01;55.54;99208.28;5086699;28;8874;-80
2022/08/24 00:03:58;;;;;;;;;29.75;29.75;;;;;26.69;57.03;99211.50;5070372;28;8892;-78
2022/08/24 00:06:27;;;;;;;;;35.60;31.40;;;;;26.42;57.81;99208.97;5088041;28;8844;-79
2022/08/24 00:08:58;;;;;;;;;33.00;31.00;;;;;26.73;56.81;99199.63;5091569;28;8872;-80
2022/08/24 00:11:28;;;;;;;;;36.75;30.75;;;;;26.87;56.87;99195.09;5094180;28;8851;-77
2022/08/24 00:13:57;;;;;;;;;39.20;34.40;;;;;26.92;56.71;99195.56;5107588;28;8861;-79
2022/08/24 00:16:25;;;;;;;;;36.50;33.50;;;;;27.00;56.17;99203.91;5107327;28;8845;-78
2022/08/24 00:18:54;;;;;;;;;33.20;31.00;;;;;27.11;56.39;99205.78;5107112;28;8993;-79
2022/08/24 00:21:25;;;;;;;;;34.00;32.00;;;;;27.22;55.76;99205.81;5106502;28;8862;-78
2022/08/24 00:23:54;;;;;;;;;34.80;32.80;;;;;26.91;56.31;99199.25;5106240;28;8883;-78
2022/08/24 00:26:23;;;;;;;;;33.60;31.40;;;;;27.09;56.10;99195.19;5105897;28;8869;-78
2022/08/24 00:28:59;;;;;;;;;30.80;30.20;;;;;26.92;56.56;99196.47;5068578;28;8844;-78
2022/08/24 00:31:34;;;;;;;;;37.00;33.60;;;;;26.80;57.03;99190.16;5051822;28;8883;-79
2022/08/24 00:34:03;;;;;;;;;35.00;32.25;;;;;26.54;57.85;99201.88;5069410;28;8853;-77
2022/08/24 00:36:32;;;;;;;;;28.20;27.40;;;;;26.76;56.87;99199.38;5055114;28;9619;-79
2022/08/24 00:39:01;;;;;;;;;33.00;31.80;;;;;26.88;56.90;99204.81;5087413;28;8987;-81
2022/08/24 00:41:30;;;;;;;;;27.00;25.80;;;;;26.87;56.48;99201.28;5089418;28;8869;-78
2022/08/24 00:44:03;;;;;;;;;32.20;31.20;;;;;27.12;56.10;99205.66;5083565;28;8845;-81
2022/08/24 00:46:42;;;;;;;;;32.80;30.60;;;;;27.21;55.97;99213.00;5106379;28;8845;-80
2022/08/24 00:49:18;;;;;;;;;31.80;29.60;;;;;27.03;55.87;99219.72;5107751;28;8829;-78
2022/08/24 00:51:55;;;;;;;;;33.40;31.80;;;;;27.11;56.01;99212.00;5091015;28;8955;-78
2022/08/24 00:54:27;;;;;;;;;33.00;32.00;;;;;27.12;56.05;99213.69;5090295;28;8849;-78
2022/08/24 00:57:02;;;;;;;;;35.40;32.40;;;;;26.74;56.79;99220.06;5090257;28;9690;-79
2022/08/24 00:59:38;;;;;;;;;31.60;30.00;;;;;27.06;56.43;99218.66;5091719;28;8876;-78
2022/08/24 01:02:11;;;;;;;;;35.25;31.25;;;;;26.70;56.76;99207.88;5025184;28;8837;-80
2022/08/24 01:04:55;;;;;;;;;29.60;29.20;;;;;27.02;56.59;99208.19;5092514;28;9615;-79
2022/08/24 01:07:25;;;;;;;;;34.40;32.40;;;;;26.73;56.83;99198.75;5093315;28;8868;-79
2022/08/24 01:09:59;;;;;;;;;37.25;32.50;;;;;26.65;57.30;99215.38;5121588;27;8938;-80
2022/08/24 01:12:31;;;;;;;;;30.60;30.40;;;;;26.87;56.81;99219.16;5114999;27;9696;-78
2022/08/24 01:15:03;;;;;;;;;34.80;30.60;;;;;26.97;56.65;99218.34;5113535;27;8831;-79
2022/08/24 01:20:19;;;;;;;;;35.25;32.00;;;;;26.79;56.89;99222.41;5113337;27;8827;-81
2022/08/24 01:22:58;;;;;;;;;30.75;30.00;;;;;27.01;56.44;99232.38;5112575;27;9805;-78
2022/08/24 01:25:30;;;;;;;;;32.75;30.00;;;;;27.06;56.39;99224.88;5071578;28;8847;-78
2022/08/24 01:28:05;;;;;;;;;36.75;33.25;;;;;27.04;56.50;99233.00;5067618;28;8856;-78
2022/08/24 01:30:34;;;;;;;;;33.50;31.00;;;;;26.73;56.77;99236.22;5047591;28;8918;-79
2022/08/24 01:33:07;;;;;;;;;40.50;34.50;;;;;26.84;56.51;99231.81;5040336;28;8865;-78
2022/08/24 01:35:38;;;;;;;;;38.00;34.00;;;;;26.89;56.58;99239.47;5068066;28;8991;-78
2022/08/24 01:38:11;;;;;;;;;39.50;35.00;;;;;27.10;56.40;99244.22;5051396;28;8852;-79
2022/08/24 01:40:46;;;;;;;;;31.20;29.60;;;;;27.33;55.75;99245.22;5018532;28;9002;-78
2022/08/24 01:43:15;;;;;;;;;35.25;32.75;;;;;27.18;55.88;99248.06;5032230;28;10148;-79
2022/08/24 01:45:44;;;;;;;;;40.50;33.50;;;;;27.35;55.66;99246.84;5032255;28;8865;-79
2022/08/24 01:48:14;;;;;;;;;29.75;29.75;;;;;27.45;55.13;99248.78;5055250;28;8853;-79
2022/08/24 01:50:52;;;;;;;;;31.75;31.25;;;;;27.51;55.25;99253.72;5072342;28;8870;-79
2022/08/24 01:53:22;;;;;;;;;37.75;34.25;;;;;27.56;54.76;99252.41;5057936;28;8845;-78
2022/08/24 01:55:52;;;;;;;;;28.25;27.25;;;;;27.61;55.35;99252.88;5061032;28;8852;-79
2022/08/24 01:58:21;;;;;;;;;35.00;32.25;;;;;27.65;54.54;99253.50;5074135;28;8867;-79
2022/08/24 02:00:50;;;;;;;;;34.60;31.40;;;;;27.73;54.34;99251.09;5089542;28;8867;-80
2022/08/24 02:03:19;;;;;;;;;31.75;30.75;;;;;27.77;54.51;99249.06;5104730;28;8841;-77
2022/08/24 02:05:56;;;;;;;;;35.25;32.00;;;;;27.85;54.23;99240.41;5109216;28;8902;-81
2022/08/24 02:08:24;;;;;;;;;38.50;34.75;;;;;27.68;54.02;99245.25;5093066;28;9013;-80
2022/08/24 02:10:54;;;;;;;;;33.50;32.00;;;;;27.75;54.00;99250.97;5092350;28;8833;-78
2022/08/24 02:13:27;;;;;;;;;34.60;31.80;;;;;27.78;54.00;99253.41;5109200;28;9622;-78
2022/08/24 02:15:56;;;;;;;;;36.25;33.75;;;;;27.85;53.85;99251.13;5105300;28;8986;-81
2022/08/24 02:18:25;;;;;;;;;30.40;29.80;;;;;27.56;54.25;99259.56;5088686;28;8878;-79
2022/08/24 02:20:54;;;;;;;;;33.00;30.00;;;;;27.68;54.63;99250.59;5044237;28;8871;-76
2022/08/24 02:23:22;;;;;;;;;37.40;34.60;;;;;27.75;54.10;99249.16;5108935;28;8967;-78
2022/08/24 02:25:52;;;;;;;;;36.20;33.00;;;;;27.75;54.34;99248.28;5109704;28;8875;-79
2022/08/24 02:28:22;;;;;;;;;33.80;30.60;;;;;27.61;54.36;99250.19;5111117;28;8864;-79
2022/08/24 02:30:52;;;;;;;;;35.20;32.20;;;;;27.77;53.89;99252.56;5095462;28;8988;-79
2022/08/24 02:33:22;;;;;;;;;35.20;33.60;;;;;27.87;53.70;99251.88;5092744;28;8833;-79
2022/08/24 02:35:53;;;;;;;;;34.60;33.20;;;;;27.80;53.99;99260.34;5088634;28;8840;-78
2022/08/24 02:38:22;;;;;;;;;34.60;31.00;;;;;27.60;54.15;99253.03;5087801;28;8867;-79
2022/08/24 02:40:51;;;;;;;;;35.40;33.40;;;;;27.75;53.95;99261.69;5071167;28;9033;-78
2022/08/24 02:43:19;;;;;;;;;35.00;33.60;;;;;27.80;54.03;99260.34;5090002;28;8847;-77
2022/08/24 02:45:49;;;;;;;;;32.00;31.40;;;;;27.74;53.81;99260.00;5048948;28;8855;-77
2022/08/24 02:48:21;;;;;;;;;29.40;29.00;;;;;27.42;54.80;99260.59;5088089;28;8922;-79
2022/08/24 02:50:51;;;;;;;;;35.50;32.25;;;;;27.51;54.70;99251.03;5071800;28;8851;-78
2022/08/24 02:53:23;;;;;;;;;33.40;31.60;;;;;27.25;55.40;99252.94;5114672;27;8861;-77
2022/08/24 02:55:52;;;;;;;;;32.40;30.80;;;;;27.38;54.91;99262.66;5089473;28;8851;-80
2022/08/24 02:58:20;;;;;;;;;29.80;29.60;;;;;27.49;54.76;99251.16;5090959;28;8864;-81
2022/08/24 03:00:51;;;;;;;;;33.00;31.80;;;;;27.60;54.79;99253.03;5089204;28;8897;-79
2022/08/24 03:03:21;;;;;;;;;33.00;31.75;;;;;27.56;54.36;99252.41;5088713;28;9594;-78
2022/08/24 03:05:50;;;;;;;;;31.40;30.40;;;;;27.57;54.59;99254.09;5088638;28;8883;-79
2022/08/24 03:08:22;;;;;;;;;34.20;30.00;;;;;27.60;54.50;99253.03;5071429;28;8851;-76
2022/08/24 03:10:51;;;;;;;;;35.20;31.20;;;;;27.72;54.26;99244.03;5053094;28;8853;-79
2022/08/24 03:13:20;;;;;;;;;33.40;31.00;;;;;27.77;54.31;99246.38;5102419;28;8874;-80
2022/08/24 03:15:48;;;;;;;;;32.80;30.60;;;;;27.82;53.97;99254.88;5074104;28;8830;-79
2022/08/24 03:18:20;;;;;;;;;34.20;32.20;;;;;27.59;54.58;99262.84;5063955;28;8876;-78
2022/08/24 03:20:53;;;;;;;;;49.75;41.00;;;;;27.48;54.50;99259.28;5046178;28;9615;-78
2022/08/24 03:23:22;;;;;;;;;35.40;32.20;;;;;27.28;55.25;99253.63;5046307;28;8978;-80
2022/08/24 03:25:51;;;;;;;;;41.25;35.75;;;;;27.21;55.24;99252.31;5047168;28;9599;-79
2022/08/24 03:28:22;;;;;;;;;42.00;36.75;;;;;27.22;55.25;99265.59;5030083;28;8874;-80
2022/08/24 03:30:52;;;;;;;;;34.20;32.80;;;;;27.17;55.58;99256.19;5012894;28;8842;-78
2022/08/24 03:33:23;;;;;;;;;38.00;34.50;;;;;26.61;56.71;99254.00;5046007;28;8966;-79
2022/08/24 03:35:54;;;;;;;;;38.25;34.25;;;;;26.78;56.90;99245.59;5029374;28;8886;-79
2022/08/24 03:38:23;;;;;;;;;31.60;30.60;;;;;26.83;56.26;99253.31;5029095;28;9788;-78
2022/08/24 03:40:53;;;;;;;;;40.75;35.00;;;;;26.94;56.53;99252.53;5022153;28;8864;-79
2022/08/24 03:46:10;;;;;;;;;35.25;32.25;;;;;26.98;56.53;99235.28;5000743;28;9006;-78
2022/08/24 03:48:43;;;;;;;;;34.60;32.00;;;;;26.74;57.01;99238.78;5032873;28;9028;-79
2022/08/24 03:51:16;;;;;;;;;37.00;33.75;;;;;26.97;56.52;99237.09;5008638;28;8882;-78
2022/08/24 03:53:47;;;;;;;;;32.80;31.00;;;;;27.08;56.72;99230.94;5046778;28;8871;-78
2022/08/24 03:56:17;;;;;;;;;39.50;34.00;;;;;27.25;55.98;99228.84;5085748;28;8964;-78
2022/08/24 03:58:47;;;;;;;;;44.50;37.75;;;;;27.25;55.47;99216.34;5039809;28;8874;-78
2022/08/24 04:01:16;;;;;;;;;41.25;35.75;;;;;27.16;55.56;99223.19;5074343;28;8881;-77
2022/08/24 04:03:48;;;;;;;;;43.75;37.25;;;;;26.93;56.73;99221.38;5032290;28;9059;-78
2022/08/24 04:06:19;;;;;;;;;37.50;34.00;;;;;26.99;56.27;99231.63;5030201;28;8983;-80
2022/08/24 04:08:48;;;;;;;;;38.50;34.50;;;;;26.77;56.95;99237.72;5029639;28;8866;-78
2022/08/24 04:11:22;;;;;;;;;35.40;32.00;;;;;27.17;56.25;99235.63;5038443;28;9950;-79
2022/08/24 04:13:52;;;;;;;;;36.50;32.25;;;;;27.13;55.85;99236.84;5088283;28;8832;-77
2022/08/24 04:16:22;;;;;;;;;59.25;48.00;;;;;26.48;57.73;99239.78;5104840;28;8832;-78
2022/08/24 04:19:00;;;;;;;;;38.75;34.25;;;;;26.95;57.05;99248.88;5106648;28;8852;-78
2022/08/24 04:21:31;;;;;;;;;46.00;38.00;;;;;27.06;56.62;99251.63;5092747;27;8855;-78
2022/08/24 04:24:06;;;;;;;;;41.00;35.50;;;;;26.84;56.84;99253.22;5096078;27;8848;-79
2022/08/24 04:26:38;;;;;;;;;41.50;37.00;;;;;26.95;56.83;99249.72;5130754;27;8970;-80
2022/08/24 04:29:19;;;;;;;;;45.00;38.00;;;;;26.72;57.18;99250.56;5113182;27;8878;-81
2022/08/24 04:31:53;;;;;;;;;37.50;33.00;;;;;26.79;57.10;99246.50;5106432;28;8855;-78
2022/08/24 04:34:24;;;;;;;;;43.50;37.50;;;;;26.81;57.02;99249.91;5076056;28;8863;-80
2022/08/24 04:36:53;;;;;;;;;39.00;34.75;;;;;26.73;57.55;99244.22;5093882;28;8882;-77
2022/08/24 04:39:22;;;;;;;;;43.75;36.25;;;;;26.78;57.20;99250.97;5069564;28;8848;-79
2022/08/24 04:42:08;;;;;;;;;44.00;38.50;;;;;26.94;56.82;99252.53;5053554;28;8931;-78
2022/08/24 04:44:41;;;;;;;;;44.50;37.50;;;;;26.96;56.72;99239.91;5037066;28;8868;-78
2022/08/24 04:47:09;;;;;;;;;39.75;36.00;;;;;27.06;56.49;99245.44;5053608;28;8965;-77
2022/08/24 04:49:40;;;;;;;;;46.25;38.25;;;;;27.14;56.17;99243.03;5061428;28;8865;-81
2022/08/24 04:52:09;;;;;;;;;43.00;36.00;;;;;26.53;57.89;99246.50;5073934;28;8853;-78
2022/08/24 04:54:39;;;;;;;;;46.00;38.75;;;;;26.77;57.27;99245.75;5073351;28;8918;-79
2022/08/24 04:57:11;;;;;;;;;44.50;38.25;;;;;26.43;58.53;99256.16;5073733;28;8852;-79
2022/08/24 04:59:46;;;;;;;;;39.75;34.50;;;;;26.85;57.00;99251.38;5050099;28;8970;-81
2022/08/24 05:02:15;;;;;;;;;40.25;34.75;;;;;26.93;57.10;99251.66;5053163;28;8859;-79
2022/08/24 05:04:48;;;;;;;;;36.50;33.75;;;;;27.14;56.43;99256.41;5060511;28;8841;-80
2022/08/24 05:07:18;;;;;;;;;41.00;36.75;;;;;26.85;56.96;99254.06;5089920;28;8940;-80
2022/08/24 05:09:47;;;;;;;;;43.25;36.00;;;;;26.93;57.18;99248.16;5076869;28;8923;-81
2022/08/24 05:12:20;;;;;;;;;39.25;34.75;;;;;26.74;57.69;99245.97;5101374;27;8834;-78
2022/08/24 05:14:58;;;;;;;;;37.50;34.50;;;;;27.07;56.78;99256.03;5114409;27;8865;-79
2022/08/24 05:17:28;;;;;;;;;38.00;34.00;;;;;27.10;56.34;99250.44;5095754;27;8877;-79
2022/08/24 05:19:58;;;;;;;;;35.75;32.25;;;;;26.70;58.02;99248.00;5130162;27;8835;-76
2022/08/24 05:22:28;;;;;;;;;44.00;38.00;;;;;26.96;57.50;99242.59;5093323;28;8880;-80
2022/08/24 05:24:58;;;;;;;;;40.50;36.00;;;;;27.04;57.11;99257.09;5093085;28;8865;-82
2022/08/24 05:27:27;;;;;;;;;45.00;37.50;;;;;26.85;57.52;99259.41;5110411;28;8845;-78
2022/08/24 05:29:56;;;;;;;;;38.00;35.00;;;;;26.71;58.03;99260.41;5110554;28;8876;-79
2022/08/24 05:32:25;;;;;;;;;40.25;35.50;;;;;27.02;57.20;99258.19;5109767;28;8861;-79
2022/08/24 05:34:55;;;;;;;;;39.25;35.75;;;;;27.23;56.62;99258.41;5106151;28;8845;-80
2022/08/24 05:37:26;;;;;;;;;38.50;35.25;;;;;27.42;56.26;99260.59;5128847;27;8873;-78
2022/08/24 05:40:15;;;;;;;;;39.50;35.25;;;;;27.56;55.78;99256.88;5130179;27;8855;-82
2022/08/24 05:42:49;;;;;;;;;39.25;35.00;;;;;27.63;55.51;99268.84;5130173;27;8834;-76
2022/08/24 05:45:17;;;;;;;;;34.40;31.80;;;;;27.73;55.22;99264.50;5128267;27;8927;-78
2022/08/24 05:47:46;;;;;;;;;37.25;33.25;;;;;27.44;55.65;99272.06;5125121;27;8851;-79
2022/08/24 05:50:33;;;;;;;;;41.00;36.50;;;;;27.52;55.57;99280.34;5108489;28;9650;-82
2022/08/24 05:53:04;;;;;;;;;39.75;36.00;;;;;27.53;55.77;99282.06;5093571;28;8844;-80
2022/08/24 05:55:33;;;;;;;;;37.00;34.00;;;;;27.72;55.25;99286.06;5091553;28;9046;-78
2022/08/24 05:58:02;;;;;;;;;40.00;35.00;;;;;27.81;55.13;99282.69;5075025;28;8856;-80
2022/08/24 06:00:32;;;;;;;;;40.20;35.00;;;;;27.78;54.66;99283.75;5091975;28;8898;-80
2022/08/24 06:03:00;;;;;;;;;34.40;32.20;;;;;27.80;54.77;99287.16;5092146;28;8817;-79
2022/08/24 06:05:29;;;;;;;;;34.00;31.20;;;;;27.98;54.70;99290.31;5091761;28;8849;-79
2022/08/24 06:07:59;;;;;;;;;38.40;33.80;;;;;27.39;55.61;99299.19;5086006;28;8834;-80
2022/08/24 06:10:30;;;;;;;;;30.00;30.00;;;;;27.72;55.44;99294.94;5087034;28;8850;-81
2022/08/24 06:13:05;;;;;;;;;35.20;33.40;;;;;27.86;54.99;99287.66;5074986;28;8954;-77
2022/08/24 06:15:35;;;;;;;;;34.00;32.80;;;;;27.97;54.67;99293.09;5070251;28;8958;-79
2022/08/24 06:18:05;;;;;;;;;34.20;32.00;;;;;28.05;54.59;99296.03;5090748;28;8845;-80
2022/08/24 06:20:39;;;;;;;;;31.20;30.60;;;;;28.22;54.23;99288.50;5073843;28;8856;-78
2022/08/24 06:23:09;;;;;;;;;35.80;33.20;;;;;28.21;54.39;99276.09;5119452;27;9729;-79
2022/08/24 06:28:32;;;;;;;;;33.60;30.80;;;;;28.31;53.71;99282.44;5128460;27;8860;-80
2022/08/24 06:31:03;;;;;;;;;31.80;30.60;;;;;27.87;54.09;99284.03;5105421;27;8858;-81
2022/08/24 06:33:31;;;;;;;;;30.60;28.40;;;;;28.10;54.28;99282.28;5132663;27;8955;-79
2022/08/24 06:36:02;;;;;;;;;39.40;34.80;;;;;27.90;54.18;99281.13;5134519;27;8892;-78
2022/08/24 06:38:32;;;;;;;;;32.40;30.40;;;;;27.85;54.50;99281.47;5065991;27;8993;-77
2022/08/24 06:41:06;;;;;;;;;30.80;29.20;;;;;27.49;55.18;99285.97;5071712;28;8974;-78
2022/08/24 06:43:35;;;;;;;;;33.80;31.20;;;;;27.71;55.28;99281.66;5071742;28;8850;-77
2022/08/24 06:46:12;;;;;;;;;31.60;30.20;;;;;27.57;55.62;99283.56;5054525;28;8865;-80
2022/08/24 06:48:44;;;;;;;;;31.00;30.80;;;;;27.80;54.76;99287.16;5070695;28;8854;-79
2022/08/24 06:51:16;;;;;;;;;31.80;30.60;;;;;27.21;56.30;99290.66;5067732;28;9607;-78
2022/08/24 06:53:46;;;;;;;;;30.80;30.00;;;;;27.53;55.43;99289.28;5050273;28;8856;-82
2022/08/24 06:56:18;;;;;;;;;27.20;25.80;;;;;27.67;55.34;99296.25;5051320;28;8840;-78
2022/08/24 06:58:47;;;;;;;;;29.60;28.40;;;;;27.91;55.30;99293.56;5054154;28;8918;-77
2022/08/24 07:01:21;;;;;;;;;30.80;29.60;;;;;27.97;55.07;99288.59;5086798;28;8862;-79
2022/08/24 07:03:51;;;;;;;;;25.60;25.60;;;;;28.19;54.26;99287.78;5069626;28;8873;-79
2022/08/24 07:06:35;;;;;;;;;32.40;30.40;;;;;27.78;54.60;99280.22;5069711;28;9078;-79
2022/08/24 07:09:05;;;;;;;;;34.80;33.40;;;;;27.92;54.89;99285.41;5070066;28;9019;-80
2022/08/24 07:11:35;;;;;;;;;31.80;29.40;;;;;27.73;54.82;99285.06;5052383;28;9595;-78
2022/08/24 07:14:05;;;;;;;;;27.00;26.40;;;;;27.76;55.42;99291.06;5086149;28;8922;-80
2022/08/24 07:16:34;;;;;;;;;28.40;25.80;;;;;27.73;54.90;99285.06;5071912;28;8927;-79
2022/08/24 07:19:05;;;;;;;;;33.40;31.20;;;;;27.44;55.45;99295.31;5096084;28;8861;-79
2022/08/24 07:21:35;;;;;;;;;28.20;26.60;;;;;27.74;54.84;99300.19;5047387;28;8848;-79
2022/08/24 07:24:06;;;;;;;;;30.80;29.60;;;;;27.87;54.66;99306.31;5097581;28;8880;-79
2022/08/24 07:26:39;;;;;;;;;27.40;26.80;;;;;28.07;54.30;99302.16;5107374;27;9431;-79
2022/08/24 07:29:13;;;;;;;;;28.60;25.40;;;;;28.30;54.13;99308.41;5128110;28;8849;-77
2022/08/24 07:32:04;;;;;;;;;38.20;32.60;;;;;27.31;55.79;99314.09;5122042;28;8880;-78
2022/08/24 07:34:37;;;;;;;;;31.40;30.80;;;;;26.97;56.95;99312.03;5108228;28;8865;-78
2022/08/24 07:37:08;;;;;;;;;31.60;30.40;;;;;27.10;56.69;99314.69;5114185;28;8864;-78
2022/08/24 07:39:40;;;;;;;;;32.60;28.60;;;;;26.86;57.67;99313.78;5079922;27;9659;-79
2022/08/24 07:42:10;;;;;;;;;31.40;28.20;;;;;26.95;56.88;99307.75;5066585;28;8872;-78
2022/08/24 07:44:45;;;;;;;;;29.20;29.20;;;;;26.97;57.53;99309.34;5089533;28;8839;-79
2022/08/24 07:47:14;;;;;;;;;36.20;31.60;;;;;27.31;56.87;99314.94;5072968;28;8871;-78
2022/08/24 07:50:07;;;;;;;;;29.60;29.40;;;;;27.44;55.87;99312.22;5088776;28;8870;-79
2022/08/24 07:52:36;;;;;;;;;25.40;22.40;;;;;27.31;56.23;99309.59;5088597;28;9052;-78
2022/08/24 07:55:06;;;;;;;;;35.40;31.40;;;;;27.60;55.53;99310.13;5072044;28;8883;-78
2022/08/24 07:57:38;;;;;;;;;30.40;26.00;;;;;27.46;55.37;99312.97;5091619;28;8843;-80
2022/08/24 08:00:11;;;;;;;;;27.20;24.20;;;;;27.61;55.77;99314.50;5092490;28;8835;-80
2022/08/24 08:02:46;;;;;;;;;30.60;28.80;;;;;27.67;55.19;99312.34;5093483;28;8864;-80
2022/08/24 08:05:20;;;;;;;;;22.80;21.00;;;;;27.89;55.13;99316.97;5076828;28;8827;-80
2022/08/24 08:07:51;;;;;;;;;25.80;24.60;;;;;28.19;54.41;99328.00;5092003;28;8843;-78
2022/08/24 08:10:22;;;;;;;;;30.20;26.40;;;;;28.06;54.10;99326.41;5092438;28;8894;-80
2022/08/24 08:12:53;;;;;;;;;32.40;29.00;;;;;28.06;54.38;99323.72;5089333;28;8849;-80
2022/08/24 08:15:22;;;;;;;;;29.80;28.60;;;;;27.80;53.96;99327.34;5080309;28;8849;-81
2022/08/24 08:18:04;;;;;;;;;28.20;27.60;;;;;27.07;56.44;99325.63;5095484;28;8857;-79
2022/08/24 08:20:38;;;;;;;;;29.40;28.20;;;;;27.77;55.13;99334.81;5094696;28;9002;-81
2022/08/24 08:26:29;;;;;;;;;32.60;27.20;;;;;28.30;53.69;99319.13;5117010;28;8840;-80
2022/08/24 08:29:04;;;;;;;;;28.00;26.60;;;;;28.62;53.59;99321.16;5113445;28;8848;-80
2022/08/24 08:31:37;;;;;;;;;26.00;25.80;;;;;28.84;52.66;99324.78;5112347;28;8869;-80
2022/08/24 08:34:07;;;;;;;;;27.40;25.80;;;;;28.54;52.25;99329.78;5094860;28;8856;-79
2022/08/24 08:36:39;;;;;;;;;29.00;26.00;;;;;28.92;52.03;99336.63;5103913;28;8843;-80
2022/08/24 08:39:10;;;;;;;;;26.80;25.20;;;;;28.69;51.93;99337.59;5073943;28;8831;-79
2022/08/24 08:42:13;;;;;;;;;28.80;25.60;;;;;28.97;51.49;99339.78;5093029;28;9698;-79
2022/08/24 08:45:08;;;;;;;;;30.00;26.60;;;;;29.00;51.75;99337.81;5092529;28;9000;-78
2022/08/24 08:48:09;;;;;;;;;24.40;23.60;;;;;28.99;51.64;99341.50;5031983;28;8928;-79
2022/08/24 08:51:24;;;;;;;;;25.60;23.60;;;;;29.13;51.49;99342.13;5032021;28;8863;-80
2022/08/24 08:54:14;;;;;;;;;23.00;22.00;;;;;29.43;51.53;99337.06;5048489;28;9673;-77
2022/08/24 08:57:01;;;;;;;;;26.60;25.00;;;;;29.22;50.73;99340.50;5031134;28;8879;-78
2022/08/24 08:59:44;;;;;;;;;26.20;26.20;;;;;29.01;50.85;99343.09;5032515;28;8856;-80
2022/08/24 09:02:32;;;;;;;;;24.80;24.80;;;;;29.28;51.32;99344.53;5072281;28;9686;-79
2022/08/24 09:05:39;;;;;;;;;33.20;32.00;;;;;29.13;50.42;99339.44;5055917;28;9651;-78
2022/08/24 09:08:20;;;;;;;;;32.60;31.80;;;;;29.09;50.98;99342.47;5072910;28;8917;-78
2022/08/24 09:10:57;;;;;;;;;38.20;34.40;;;;;29.30;50.71;99337.19;5072339;28;8864;-79
2022/08/24 09:13:48;;;;;;;;;42.80;36.80;;;;;29.60;50.22;99344.56;5052031;28;8852;-80
2022/08/24 09:16:52;;;;;;;;;48.50;39.75;;;;;29.33;49.82;99348.56;5025103;28;8852;-77
2022/08/24 09:19:33;;;;;;;;;53.00;43.00;;;;;28.67;51.65;99347.59;5051288;28;8860;-79
2022/08/24 09:22:11;;;;;;;;;48.50;40.75;;;;;28.99;51.28;99352.25;5033910;28;8887;-78
2022/08/24 09:24:59;;;;;;;;;40.20;35.20;;;;;28.98;51.80;99351.41;5087076;27;8841;-82
2022/08/24 09:28:00;;;;;;;;;34.80;31.00;;;;;29.21;50.78;99351.41;5092787;28;8877;-79
2022/08/24 09:30:40;;;;;;;;;30.80;30.40;;;;;29.39;51.05;99347.19;5111002;28;8843;-80
2022/08/24 09:33:20;;;;;;;;;32.00;30.40;;;;;29.64;50.60;99354.09;5092978;28;8849;-78
2022/08/24 09:36:09;;;;;;;;;25.00;23.20;;;;;29.99;49.44;99354.84;5093187;28;8833;-81
2022/08/24 09:39:04;;;;;;;;;28.80;28.80;;;;;29.73;49.17;99349.81;5112086;27;8945;-80
2022/08/24 09:41:59;;;;;;;;;27.20;27.20;;;;;30.02;48.45;99349.19;5113485;27;8830;-80
2022/08/24 09:45:03;;;;;;;;;30.00;28.40;;;;;30.06;48.38;99356.88;5131753;27;8838;-77
2022/08/24 09:48:28;;;;;;;;;28.60;27.80;;;;;30.40;48.33;99355.88;5127479;27;8840;-78
2022/08/24 09:51:41;;;;;;;;;28.40;28.20;;;;;30.79;47.89;99350.69;5050646;28;8848;-80
2022/08/24 09:54:46;;;;;;;;;27.80;27.20;;;;;30.94;47.59;99352.03;5019173;28;8864;-78
2022/08/24 09:57:29;;;;;;;;;27.40;25.00;;;;;31.02;47.33;99354.94;5050802;28;8844;-79
2022/08/24 10:00:25;;;;;;;;;26.40;25.80;;;;;30.82;46.16;99350.41;5066894;28;8860;-80
2022/08/24 10:03:13;;;;;;;;;31.80;29.40;;;;;30.49;47.06;99357.75;5066109;28;8847;-78
2022/08/24 10:06:04;;;;;;;;;27.40;26.00;;;;;30.20;46.92;99350.31;5050431;28;8851;-78
2022/08/24 10:08:54;;;;;;;;;25.60;25.60;;;;;29.61;49.92;99362.41;5033737;28;9034;-77
2022/08/24 10:11:35;;;;;;;;;27.20;26.20;;;;;29.95;48.60;99351.56;5062318;28;9612;-80
2022/08/24 10:14:16;;;;;;;;;27.20;24.80;;;;;30.31;48.61;99354.78;5046761;28;8947;-77
2022/08/24 10:16:54;;;;;;;;;31.80;28.80;;;;;30.30;48.11;99353.06;5047075;28;10018;-77
2022/08/24 10:19:48;;;;;;;;;30.00;27.80;;;;;29.35;49.30;99351.13;5030063;28;8862;-77
2022/08/24 10:22:32;;;;;;;;;20.20;19.80;;;;;29.94;49.54;99357.91;5046515;28;8866;-78
2022/08/24 10:25:18;;;;;;;;;23.40;23.40;;;;;30.23;48.52;99357.28;5046882;28;8866;-77
2022/08/24 10:27:59;;;;;;;;;25.20;21.80;;;;;30.36;48.48;99351.72;5108536;28;8837;-79
2022/08/24 10:30:47;;;;;;;;;26.40;24.00;;;;;30.61;48.03;99347.78;5115298;27;8846;-81
2022/08/24 10:33:21;;;;;;;;;20.40;19.80;;;;;30.56;47.23;99348.16;5112047;27;8870;-79
2022/08/24 10:36:08;;;;;;;;;23.80;22.20;;;;;30.87;47.33;99356.22;5107073;28;8867;-81
2022/08/24 10:45:17;;;;;;;;;21.60;21.40;;;;;30.78;47.30;99362.44;5089289;28;8829;-79
2022/08/24 10:48:04;;;;;;;;;27.20;23.60;;;;;30.60;46.70;99364.91;5086934;28;8949;-77
2022/08/24 10:50:52;;;;;;;;;23.60;20.60;;;;;30.65;47.46;99359.97;5085801;28;8894;-79
2022/08/24 10:53:26;;;;;;;;;22.00;20.60;;;;;30.70;47.23;99365.81;5098038;28;8865;-82
2022/08/24 10:56:08;;;;;;;;;27.80;24.40;;;;;30.63;47.06;99368.19;5093168;28;8883;-77
2022/08/24 10:59:10;;;;;;;;;23.60;23.20;;;;;30.85;46.58;99367.16;5109718;28;8833;-80
2022/08/24 11:01:39;;;;;;;;;21.60;21.00;;;;;30.37;47.70;99366.88;5108997;28;8886;-78
2022/08/24 11:04:11;;;;;;;;;23.20;22.40;;;;;29.78;49.20;99373.63;5091058;28;8853;-80
2022/08/24 11:06:43;;;;;;;;;23.80;23.00;;;;;30.06;48.15;99366.78;5079468;28;8867;-82
2022/08/24 11:09:14;;;;;;;;;24.20;23.40;;;;;30.26;48.04;99368.63;5112554;27;8954;-80
2022/08/24 11:11:49;;;;;;;;;22.00;20.80;;;;;30.10;48.55;99368.25;5128944;27;8891;-78
2022/08/24 11:14:30;;;;;;;;;24.60;24.00;;;;;29.93;48.48;99372.34;5130538;27;8878;-78
2022/08/24 11:17:16;;;;;;;;;26.00;24.60;;;;;30.20;48.31;99371.84;5126813;27;9608;-78
2022/08/24 11:19:45;;;;;;;;;22.60;20.80;;;;;30.24;48.63;99375.13;5057124;28;8941;-80
2022/08/24 11:22:36;;;;;;;;;19.40;19.20;;;;;30.41;48.05;99369.16;5109232;28;8853;-78
2022/08/24 11:25:13;;;;;;;;;20.60;19.40;;;;;30.35;47.86;99372.41;5108946;28;8841;-81
2022/08/24 11:27:46;;;;;;;;;19.40;19.40;;;;;30.47;48.08;99375.88;5108936;28;8847;-76
2022/08/24 11:30:25;;;;;;;;;27.00;22.20;;;;;30.58;47.01;99374.94;5108537;28;8951;-78
2022/08/24 11:32:56;;;;;;;;;25.20;23.60;;;;;30.51;47.98;99388.06;5106866;27;8983;-80
2022/08/24 11:35:28;;;;;;;;;30.80;26.60;;;;;30.35;48.57;99382.31;5088395;28;8840;-79
2022/08/24 11:38:05;;;;;;;;;26.00;24.60;;;;;30.64;47.89;99382.47;5065490;28;8871;-80
2022/08/24 11:40:40;;;;;;;;;23.80;23.20;;;;;30.36;48.07;99376.81;5049217;28;8856;-79
2022/08/24 11:43:25;;;;;;;;;21.00;20.80;;;;;30.77;47.65;99374.19;5075716;28;8875;-79
2022/08/24 11:46:05;;;;;;;;;23.20;22.00;;;;;31.11;47.34;99380.16;5103418;28;8952;-78
2022/08/24 11:48:46;;;;;;;;;22.40;19.60;;;;;31.27;46.26;99380.50;5080870;28;8853;-79
2022/08/24 11:51:29;;;;;;;;;21.20;20.20;;;;;31.35;46.18;99382.50;5103416;28;8946;-80
2022/08/24 11:54:05;;;;;;;;;23.20;23.20;;;;;30.98;47.28;99374.16;5094972;28;8862;-81
2022/08/24 11:56:41;;;;;;;;;27.20;26.80;;;;;31.07;46.32;99371.50;5090806;28;8837;-78
2022/08/24 11:59:18;;;;;;;;;23.40;23.00;;;;;30.33;47.95;99373.53;5053141;28;8878;-80
2022/08/24 12:01:55;;;;;;;;;24.40;24.40;;;;;30.67;47.21;99375.00;5053207;28;9615;-78
2022/08/24 12:04:38;;;;;;;;;28.80;24.80;;;;;30.50;47.20;99375.59;5069122;28;8861;-79
2022/08/24 12:07:17;;;;;;;;;24.00;22.60;;;;;30.68;47.59;99365.94;5083521;28;8975;-79
2022/08/24 12:10:02;;;;;;;;;24.60;21.20;;;;;31.01;45.92;99366.66;5123988;27;8946;-78
2022/08/24 12:12:40;;;;;;;;;22.60;22.00;;;;;31.16;46.79;99364.47;5043028;28;8883;-79
2022/08/24 12:15:16;;;;;;;;;24.20;23.80;;;;;31.43;46.35;99368.34;5106151;28;8861;-79
2022/08/24 12:17:56;;;;;;;;;23.40;23.20;;;;;31.69;45.28;99367.88;5085509;28;8853;-78
2022/08/24 12:20:30;;;;;;;;;26.20;24.40;;;;;31.20;45.16;99368.56;5085488;28;8936;-78